Pagrindinis puslapis
METAR-TAF:

METAR-TAF

Oro uostai :

Ringkiobingas-Skjern, Danija

platuma: 56-00N, ilguma: 008-21E, Aukštis: 5 m

Dabartinis oras

Ataskaita buvo paskelbta 16 minutes, ne 02:50 UTC
Vėjas 13 kt iš Pietų
Temperatūra
Slėgis 1015 hPa
Matomumas 10 km arba daugiau
lietus,

METAR: EKVJ 280250Z AUTO 18013KT 9999 -RA BKN012/// OVC017/// ///// Q1015

Laikas: 04:06 (03:06 UTC)

Prognozė

Ataskaita buvo paskelbta 18 valandos ir 7 minutes, ne 08:59 UTC
Prognozė galioja nuo 27 metu 09 UTC su 27 metu 15 UTC
Vėjas 5 kt iš Pietų
Matomumas 10 km arba daugiau
Su prošvaistėmis ne aukštis 2000 ft
Laikinai
nuo 27 metu 09 UTC su 27 metu 15 UTC
Su prošvaistėmis ne aukštis 1200 ft

TAF: EKVJ 270859Z 2709/2715 18005KT 9999 BKN020 TEMPO 2709/2715 BKN012

Orai ataskaitas ir orų prognozės (METAR, TAF).

turimą stotys yra geltonos ir raudonos taškus žemėlapyje.

Perkelti pele per norėdami pamatyti stoties vardą.

Tada spustelėkite, norėdami matyti oro stebėjimo ir prognozės.

Norėdami pakeisti žemėlapį: spustelėkite ant žalios mygtukų su juodo kryžiaus žemyn,; žalią mygtuką su brūkšneliu, jei norite nutolinti; arba žalių rodyklių gretimoms žemėlapius.


METAR-TAF: